sensor_id;sensor_type;location;lat;lon;timestamp;pressure;altitude;pressure_sealevel;temperature;humidity
43824;BME280;29470;53.550;9.926;2023-02-21T00:00:33;100878.84;;;11.92;100.00
43824;BME280;29470;53.550;9.926;2023-02-21T00:05:55;100875.13;;;11.89;100.00
43824;BME280;29470;53.550;9.926;2023-02-21T00:11:15;100882.00;;;11.88;100.00
43824;BME280;29470;53.550;9.926;2023-02-21T00:16:36;100893.13;;;11.60;100.00
43824;BME280;29470;53.550;9.926;2023-02-21T00:21:58;100889.03;;;12.03;100.00
43824;BME280;29470;53.550;9.926;2023-02-21T00:27:19;100894.25;;;11.77;100.00
43824;BME280;29470;53.550;9.926;2023-02-21T00:32:40;100891.50;;;11.49;100.00
43824;BME280;29470;53.550;9.926;2023-02-21T00:38:02;100908.03;;;11.51;100.00
43824;BME280;29470;53.550;9.926;2023-02-21T00:43:27;100909.69;;;11.12;100.00
43824;BME280;29470;53.550;9.926;2023-02-21T00:48:47;100917.81;;;11.55;100.00
43824;BME280;29470;53.550;9.926;2023-02-21T00:54:09;100909.56;;;12.40;100.00
43824;BME280;29470;53.550;9.926;2023-02-21T00:59:29;100907.75;;;11.99;100.00
43824;BME280;29470;53.550;9.926;2023-02-21T01:04:49;100905.69;;;12.33;100.00
43824;BME280;29470;53.550;9.926;2023-02-21T01:10:11;100906.44;;;11.92;100.00
43824;BME280;29470;53.550;9.926;2023-02-21T01:15:32;100909.72;;;11.89;100.00
43824;BME280;29470;53.550;9.926;2023-02-21T01:20:53;100910.13;;;11.82;100.00
43824;BME280;29470;53.550;9.926;2023-02-21T01:26:17;100908.56;;;11.33;100.00
43824;BME280;29470;53.550;9.926;2023-02-21T01:31:37;100909.25;;;11.56;100.00
43824;BME280;29470;53.550;9.926;2023-02-21T01:36:57;100909.66;;;11.62;100.00
43824;BME280;29470;53.550;9.926;2023-02-21T01:42:19;100914.34;;;11.29;100.00
43824;BME280;29470;53.550;9.926;2023-02-21T01:47:40;100908.28;;;11.29;100.00
43824;BME280;29470;53.550;9.926;2023-02-21T01:53:02;100920.84;;;11.36;100.00
43824;BME280;29470;53.550;9.926;2023-02-21T01:58:25;100917.41;;;11.49;100.00
43824;BME280;29470;53.550;9.926;2023-02-21T02:03:46;100911.88;;;11.31;100.00
43824;BME280;29470;53.550;9.926;2023-02-21T02:09:15;100915.34;;;11.70;100.00
43824;BME280;29470;53.550;9.926;2023-02-21T02:15:00;100904.00;;;11.68;100.00
43824;BME280;29470;53.550;9.926;2023-02-21T02:20:41;100917.56;;;11.39;100.00
43824;BME280;29470;53.550;9.926;2023-02-21T02:26:04;100931.22;;;10.99;100.00
43824;BME280;29470;53.550;9.926;2023-02-21T02:31:30;100929.47;;;11.62;100.00
43824;BME280;29470;53.550;9.926;2023-02-21T02:36:40;100920.22;;;11.27;100.00
43824;BME280;29470;53.550;9.926;2023-02-21T02:41:47;100920.03;;;11.62;100.00
43824;BME280;29470;53.550;9.926;2023-02-21T02:46:57;100922.31;;;11.32;100.00
43824;BME280;29470;53.550;9.926;2023-02-21T02:52:07;100926.22;;;11.64;100.00
43824;BME280;29470;53.550;9.926;2023-02-21T02:57:11;100921.66;;;11.35;100.00
43824;BME280;29470;53.550;9.926;2023-02-21T03:02:29;100923.47;;;11.49;100.00
43824;BME280;29470;53.550;9.926;2023-02-21T03:07:46;100929.84;;;11.41;100.00
43824;BME280;29470;53.550;9.926;2023-02-21T03:12:59;100920.47;;;11.82;100.00
43824;BME280;29470;53.550;9.926;2023-02-21T03:18:13;100932.94;;;11.49;100.00
43824;BME280;29470;53.550;9.926;2023-02-21T03:23:21;100935.25;;;11.32;100.00
43824;BME280;29470;53.550;9.926;2023-02-21T03:28:27;100937.53;;;11.53;100.00
43824;BME280;29470;53.550;9.926;2023-02-21T03:33:32;100932.94;;;11.49;100.00
43824;BME280;29470;53.550;9.926;2023-02-21T03:38:36;100935.19;;;11.31;100.00
43824;BME280;29470;53.550;9.926;2023-02-21T03:43:39;100937.19;;;11.35;100.00
43824;BME280;29470;53.550;9.926;2023-02-21T03:48:42;100936.19;;;11.33;100.00
43824;BME280;29470;53.550;9.926;2023-02-21T03:53:59;100940.28;;;11.43;100.00
43824;BME280;29470;53.550;9.926;2023-02-21T03:59:10;100935.22;;;11.44;100.00
43824;BME280;29470;53.550;9.926;2023-02-21T04:04:13;100940.06;;;11.14;100.00
43824;BME280;29470;53.550;9.926;2023-02-21T04:09:18;100942.53;;;11.13;100.00
43824;BME280;29470;53.550;9.926;2023-02-21T04:14:21;100944.69;;;11.07;100.00
43824;BME280;29470;53.550;9.926;2023-02-21T04:19:24;100942.09;;;11.07;100.00
43824;BME280;29470;53.550;9.926;2023-02-21T04:24:29;100951.72;;;11.33;100.00
43824;BME280;29470;53.550;9.926;2023-02-21T04:29:32;100945.97;;;11.76;100.00
43824;BME280;29470;53.550;9.926;2023-02-21T04:34:35;100939.47;;;11.69;100.00
43824;BME280;29470;53.550;9.926;2023-02-21T04:39:39;100957.84;;;11.47;100.00
43824;BME280;29470;53.550;9.926;2023-02-21T04:44:42;100939.69;;;10.84;100.00
43824;BME280;29470;53.550;9.926;2023-02-21T04:50:00;100958.88;;;10.51;100.00
43824;BME280;29470;53.550;9.926;2023-02-21T04:55:05;100951.13;;;10.51;100.00
43824;BME280;29470;53.550;9.926;2023-02-21T05:00:10;100944.13;;;11.11;97.74
43824;BME280;29470;53.550;9.926;2023-02-21T05:05:13;100951.22;;;10.52;97.62
43824;BME280;29470;53.550;9.926;2023-02-21T05:10:19;100938.69;;;10.82;97.92
43824;BME280;29470;53.550;9.926;2023-02-21T05:15:22;100934.66;;;10.74;97.28
43824;BME280;29470;53.550;9.926;2023-02-21T05:20:24;100946.00;;;11.25;96.46
43824;BME280;29470;53.550;9.926;2023-02-21T05:25:29;100937.25;;;10.62;99.91
43824;BME280;29470;53.550;9.926;2023-02-21T05:30:32;100944.13;;;11.11;96.59
43824;BME280;29470;53.550;9.926;2023-02-21T05:35:35;100955.91;;;10.70;96.15
43824;BME280;29470;53.550;9.926;2023-02-21T05:40:39;100967.22;;;10.00;100.00
43824;BME280;29470;53.550;9.926;2023-02-21T05:45:42;100966.13;;;10.32;97.08
43824;BME280;29470;53.550;9.926;2023-02-21T05:50:45;100979.47;;;10.03;98.88
43824;BME280;29470;53.550;9.926;2023-02-21T05:55:50;100970.41;;;10.92;96.36
43824;BME280;29470;53.550;9.926;2023-02-21T06:00:53;100981.19;;;10.14;97.72
43824;BME280;29470;53.550;9.926;2023-02-21T06:05:56;100980.53;;;10.76;93.99
43824;BME280;29470;53.550;9.926;2023-02-21T06:11:00;100983.88;;;10.99;92.69
43824;BME280;29470;53.550;9.926;2023-02-21T06:16:03;100988.97;;;10.62;94.57
43824;BME280;29470;53.550;9.926;2023-02-21T06:21:06;101001.13;;;10.63;96.18
43824;BME280;29470;53.550;9.926;2023-02-21T06:26:11;101002.69;;;10.97;92.80
43824;BME280;29470;53.550;9.926;2023-02-21T06:31:15;101011.00;;;10.93;91.83
43824;BME280;29470;53.550;9.926;2023-02-21T06:36:25;101019.19;;;11.23;91.40
43824;BME280;29470;53.550;9.926;2023-02-21T06:42:12;101035.09;;;10.92;92.33
43824;BME280;29470;53.550;9.926;2023-02-21T06:47:15;101032.78;;;10.37;94.84
43824;BME280;29470;53.550;9.926;2023-02-21T06:52:19;101037.31;;;10.63;94.05
43824;BME280;29470;53.550;9.926;2023-02-21T06:57:23;101039.03;;;10.51;95.22
43824;BME280;29470;53.550;9.926;2023-02-21T07:02:26;101031.94;;;10.84;91.67
43824;BME280;29470;53.550;9.926;2023-02-21T07:07:29;101046.22;;;10.67;91.16
43824;BME280;29470;53.550;9.926;2023-02-21T07:12:33;101037.88;;;10.35;92.23
43824;BME280;29470;53.550;9.926;2023-02-21T07:17:36;101049.03;;;10.94;90.72
43824;BME280;29470;53.550;9.926;2023-02-21T07:22:39;101057.25;;;10.64;91.71
43824;BME280;29470;53.550;9.926;2023-02-21T07:27:43;101049.47;;;10.64;91.00
43824;BME280;29470;53.550;9.926;2023-02-21T07:32:46;101054.66;;;11.00;89.54
43824;BME280;29470;53.550;9.926;2023-02-21T07:37:49;101057.19;;;11.73;86.15
43824;BME280;29470;53.550;9.926;2023-02-21T07:42:53;101056.53;;;11.63;87.78
43824;BME280;29470;53.550;9.926;2023-02-21T07:47:56;101062.88;;;11.55;88.28
43824;BME280;29470;53.550;9.926;2023-02-21T07:52:59;101077.91;;;11.73;86.23
43824;BME280;29470;53.550;9.926;2023-02-21T07:58:03;101078.19;;;11.89;88.30
43824;BME280;29470;53.550;9.926;2023-02-21T08:03:08;101088.19;;;10.86;92.44
43824;BME280;29470;53.550;9.926;2023-02-21T08:08:15;101090.13;;;11.01;92.67
43824;BME280;29470;53.550;9.926;2023-02-21T08:13:19;101087.00;;;11.79;89.79
43824;BME280;29470;53.550;9.926;2023-02-21T08:18:22;101096.91;;;12.22;84.95
43824;BME280;29470;53.550;9.926;2023-02-21T08:23:26;101090.94;;;12.23;82.03
43824;BME280;29470;53.550;9.926;2023-02-21T08:28:30;101100.72;;;12.28;80.38
43824;BME280;29470;53.550;9.926;2023-02-21T08:33:33;101098.56;;;11.97;80.29
43824;BME280;29470;53.550;9.926;2023-02-21T08:38:36;101094.47;;;12.12;82.24
43824;BME280;29470;53.550;9.926;2023-02-21T08:43:41;101107.38;;;12.24;79.33
43824;BME280;29470;53.550;9.926;2023-02-21T08:48:44;101113.09;;;12.32;79.04
43824;BME280;29470;53.550;9.926;2023-02-21T08:53:49;101109.16;;;12.25;79.69
43824;BME280;29470;53.550;9.926;2023-02-21T08:58:54;101112.50;;;13.02;76.65
43824;BME280;29470;53.550;9.926;2023-02-21T09:03:56;101116.31;;;12.55;79.73
43824;BME280;29470;53.550;9.926;2023-02-21T09:09:03;101121.25;;;13.31;75.82
43824;BME280;29470;53.550;9.926;2023-02-21T09:14:10;101120.97;;;12.33;79.16
43824;BME280;29470;53.550;9.926;2023-02-21T09:19:13;101122.53;;;12.70;78.00
43824;BME280;29470;53.550;9.926;2023-02-21T09:24:16;101132.22;;;12.59;78.10
43824;BME280;29470;53.550;9.926;2023-02-21T09:29:21;101142.13;;;12.92;74.45
43824;BME280;29470;53.550;9.926;2023-02-21T09:34:28;101148.22;;;12.79;75.39
43824;BME280;29470;53.550;9.926;2023-02-21T09:39:31;101148.41;;;11.81;78.64
43824;BME280;29470;53.550;9.926;2023-02-21T09:44:39;101151.94;;;12.18;78.05
43824;BME280;29470;53.550;9.926;2023-02-21T09:49:43;101151.94;;;12.96;75.94
43824;BME280;29470;53.550;9.926;2023-02-21T09:54:55;101164.47;;;12.76;75.39
43824;BME280;29470;53.550;9.926;2023-02-21T10:00:00;101170.31;;;12.99;74.40
43824;BME280;29470;53.550;9.926;2023-02-21T10:05:19;101164.97;;;12.71;73.82
43824;BME280;29470;53.550;9.926;2023-02-21T10:10:27;101167.47;;;12.82;71.55
43824;BME280;29470;53.550;9.926;2023-02-21T10:15:42;101166.56;;;12.69;72.69
43824;BME280;29470;53.550;9.926;2023-02-21T10:20:52;101171.31;;;13.01;70.79
43824;BME280;29470;53.550;9.926;2023-02-21T10:26:03;101161.34;;;13.48;66.84
43824;BME280;29470;53.550;9.926;2023-02-21T10:31:33;101175.28;;;12.96;70.23
43824;BME280;29470;53.550;9.926;2023-02-21T10:36:37;101182.88;;;13.87;67.05
43824;BME280;29470;53.550;9.926;2023-02-21T10:41:48;101183.66;;;13.99;64.29
43824;BME280;29470;53.550;9.926;2023-02-21T10:46:59;101189.56;;;14.25;62.55
43824;BME280;29470;53.550;9.926;2023-02-21T10:52:09;101186.38;;;14.73;60.27
43824;BME280;29470;53.550;9.926;2023-02-21T10:57:15;101191.41;;;14.56;59.51
43824;BME280;29470;53.550;9.926;2023-02-21T11:02:31;101195.66;;;13.97;61.96
43824;BME280;29470;53.550;9.926;2023-02-21T11:07:34;101193.81;;;13.54;62.48
43824;BME280;29470;53.550;9.926;2023-02-21T11:12:37;101191.53;;;14.01;62.78
43824;BME280;29470;53.550;9.926;2023-02-21T11:17:42;101184.09;;;13.92;63.65
43824;BME280;29470;53.550;9.926;2023-02-21T11:22:47;101173.25;;;13.99;64.46
43824;BME280;29470;53.550;9.926;2023-02-21T11:27:58;101196.31;;;13.80;64.75
43824;BME280;29470;53.550;9.926;2023-02-21T11:33:05;101180.19;;;13.72;64.19
43824;BME280;29470;53.550;9.926;2023-02-21T11:38:29;101181.94;;;14.00;64.84
43824;BME280;29470;53.550;9.926;2023-02-21T11:43:33;101193.00;;;13.69;68.22
43824;BME280;29470;53.550;9.926;2023-02-21T11:48:43;101173.50;;;14.33;66.74
43824;BME280;29470;53.550;9.926;2023-02-21T11:53:49;101171.25;;;14.24;67.82
43824;BME280;29470;53.550;9.926;2023-02-21T11:58:57;101180.38;;;13.89;70.36
43824;BME280;29470;53.550;9.926;2023-02-21T12:04:17;101178.31;;;13.16;76.35
43824;BME280;29470;53.550;9.926;2023-02-21T12:09:25;101173.81;;;13.26;76.96
43824;BME280;29470;53.550;9.926;2023-02-21T12:14:39;101184.19;;;12.61;83.33
43824;BME280;29470;53.550;9.926;2023-02-21T12:20:05;101180.00;;;13.29;80.59
43824;BME280;29470;53.550;9.926;2023-02-21T12:25:15;101174.53;;;13.51;78.71
43824;BME280;29470;53.550;9.926;2023-02-21T12:30:39;101180.72;;;13.66;77.97
43824;BME280;29470;53.550;9.926;2023-02-21T12:42:09;101177.53;;;13.57;76.60
43824;BME280;29470;53.550;9.926;2023-02-21T12:47:43;101182.13;;;13.61;75.98
43824;BME280;29470;53.550;9.926;2023-02-21T12:53:30;101177.81;;;13.08;78.99
43824;BME280;29470;53.550;9.926;2023-02-21T12:59:05;101177.41;;;13.29;78.57
43824;BME280;29470;53.550;9.926;2023-02-21T13:04:21;101181.28;;;12.95;77.37
43824;BME280;29470;53.550;9.926;2023-02-21T13:09:32;101176.03;;;13.20;78.04
43824;BME280;29470;53.550;9.926;2023-02-21T13:21:42;101169.28;;;14.20;71.87
43824;BME280;29470;53.550;9.926;2023-02-21T13:27:18;101168.13;;;14.73;68.36
43824;BME280;29470;53.550;9.926;2023-02-21T13:32:52;101179.53;;;14.32;69.58
43824;BME280;29470;53.550;9.926;2023-02-21T13:38:15;101182.13;;;13.75;72.02
43824;BME280;29470;53.550;9.926;2023-02-21T13:43:48;101175.16;;;13.89;70.18
43824;BME280;29470;53.550;9.926;2023-02-21T14:09:27;101173.03;;;13.14;71.51
43824;BME280;29470;53.550;9.926;2023-02-21T14:15:04;101180.53;;;12.71;74.39
43824;BME280;29470;53.550;9.926;2023-02-21T14:20:36;101184.31;;;12.37;77.70
43824;BME280;29470;53.550;9.926;2023-02-21T14:26:35;101178.72;;;12.56;76.89
43824;BME280;29470;53.550;9.926;2023-02-21T14:32:22;101170.16;;;12.71;77.07
43824;BME280;29470;53.550;9.926;2023-02-21T14:37:55;101174.28;;;12.94;76.73
43824;BME280;29470;53.550;9.926;2023-02-21T14:43:22;101175.84;;;12.40;77.62
43824;BME280;29470;53.550;9.926;2023-02-21T14:49:04;101169.09;;;12.94;76.28
43824;BME280;29470;53.550;9.926;2023-02-21T14:54:49;101171.28;;;12.88;76.35
43824;BME280;29470;53.550;9.926;2023-02-21T15:00:29;101187.78;;;12.63;78.42
43824;BME280;29470;53.550;9.926;2023-02-21T15:06:03;101174.41;;;12.95;75.18
43824;BME280;29470;53.550;9.926;2023-02-21T15:11:24;101185.66;;;12.82;75.99
43824;BME280;29470;53.550;9.926;2023-02-21T15:16:47;101182.69;;;13.03;76.22
43824;BME280;29470;53.550;9.926;2023-02-21T15:22:28;101182.00;;;13.06;75.88
43824;BME280;29470;53.550;9.926;2023-02-21T15:28:05;101170.78;;;12.80;76.62
43824;BME280;29470;53.550;9.926;2023-02-21T15:33:23;101176.78;;;12.79;78.23
43824;BME280;29470;53.550;9.926;2023-02-21T15:38:45;101191.34;;;12.51;81.04
43824;BME280;29470;53.550;9.926;2023-02-21T15:44:09;101186.59;;;12.58;79.55
43824;BME280;29470;53.550;9.926;2023-02-21T15:49:41;101183.69;;;12.53;81.82
43824;BME280;29470;53.550;9.926;2023-02-21T15:55:26;101191.72;;;12.19;82.93
43824;BME280;29470;53.550;9.926;2023-02-21T16:00:42;101198.47;;;12.29;85.71
43824;BME280;29470;53.550;9.926;2023-02-21T16:06:24;101193.16;;;12.02;89.59
43824;BME280;29470;53.550;9.926;2023-02-21T16:11:49;101189.84;;;12.04;90.50
43824;BME280;29470;53.550;9.926;2023-02-21T16:17:21;101191.56;;;12.04;91.50
43824;BME280;29470;53.550;9.926;2023-02-21T16:22:42;101185.91;;;11.86;91.48
43824;BME280;29470;53.550;9.926;2023-02-21T16:28:25;101201.06;;;11.68;92.55
43824;BME280;29470;53.550;9.926;2023-02-21T16:33:44;101203.56;;;11.54;92.72
43824;BME280;29470;53.550;9.926;2023-02-21T16:39:00;101209.41;;;11.52;95.00
43824;BME280;29470;53.550;9.926;2023-02-21T16:44:13;101212.31;;;11.80;93.75
43824;BME280;29470;53.550;9.926;2023-02-21T16:49:16;101213.78;;;11.76;94.51
43824;BME280;29470;53.550;9.926;2023-02-21T16:54:20;101218.97;;;11.64;93.30
43824;BME280;29470;53.550;9.926;2023-02-21T16:59:24;101213.31;;;11.82;93.17
43824;BME280;29470;53.550;9.926;2023-02-21T17:04:27;101222.47;;;11.53;95.11
43824;BME280;29470;53.550;9.926;2023-02-21T17:09:31;101223.81;;;11.72;93.62
43824;BME280;29470;53.550;9.926;2023-02-21T17:14:34;101229.00;;;11.72;92.93
43824;BME280;29470;53.550;9.926;2023-02-21T17:19:37;101228.19;;;11.97;93.22
43824;BME280;29470;53.550;9.926;2023-02-21T17:24:42;101236.53;;;11.81;92.72
43824;BME280;29470;53.550;9.926;2023-02-21T17:29:46;101237.63;;;11.96;92.31
43824;BME280;29470;53.550;9.926;2023-02-21T17:34:49;101251.28;;;12.05;89.67
43824;BME280;29470;53.550;9.926;2023-02-21T17:39:54;101248.59;;;12.04;91.04
43824;BME280;29470;53.550;9.926;2023-02-21T17:44:57;101254.22;;;11.39;92.10
43824;BME280;29470;53.550;9.926;2023-02-21T17:50:03;101254.94;;;11.36;95.68
43824;BME280;29470;53.550;9.926;2023-02-21T17:55:09;101265.25;;;11.12;96.36
43824;BME280;29470;53.550;9.926;2023-02-21T18:00:18;101269.22;;;11.67;95.87
43824;BME280;29470;53.550;9.926;2023-02-21T18:05:23;101267.19;;;11.74;92.42
43824;BME280;29470;53.550;9.926;2023-02-21T18:10:28;101275.19;;;12.01;92.75
43824;BME280;29470;53.550;9.926;2023-02-21T18:15:31;101267.41;;;11.89;93.16
43824;BME280;29470;53.550;9.926;2023-02-21T18:20:33;101269.22;;;11.67;92.79
43824;BME280;29470;53.550;9.926;2023-02-21T18:25:38;101279.56;;;11.55;95.02
43824;BME280;29470;53.550;9.926;2023-02-21T18:30:41;101279.03;;;11.35;96.23
43824;BME280;29470;53.550;9.926;2023-02-21T18:35:44;101284.06;;;11.69;93.32
43824;BME280;29470;53.550;9.926;2023-02-21T18:40:49;101279.81;;;11.34;94.69
43824;BME280;29470;53.550;9.926;2023-02-21T18:45:53;101278.69;;;11.54;94.47
43824;BME280;29470;53.550;9.926;2023-02-21T18:50:56;101278.09;;;11.70;95.60
43824;BME280;29470;53.550;9.926;2023-02-21T18:56:01;101275.41;;;12.04;93.12
43824;BME280;29470;53.550;9.926;2023-02-21T19:01:07;101278.00;;;11.92;92.33
43824;BME280;29470;53.550;9.926;2023-02-21T19:06:15;101276.41;;;11.94;93.12
43824;BME280;29470;53.550;9.926;2023-02-21T19:11:19;101275.53;;;11.70;92.84
43824;BME280;29470;53.550;9.926;2023-02-21T19:16:22;101275.41;;;11.81;94.12
43824;BME280;29470;53.550;9.926;2023-02-21T19:21:26;101274.63;;;11.82;94.14
43824;BME280;29470;53.550;9.926;2023-02-21T19:26:30;101279.81;;;11.70;96.99
43824;BME280;29470;53.550;9.926;2023-02-21T19:31:33;101283.31;;;12.43;91.20
43824;BME280;29470;53.550;9.926;2023-02-21T19:36:36;101286.09;;;12.21;91.18
43824;BME280;29470;53.550;9.926;2023-02-21T19:41:41;101282.75;;;12.47;89.96
43824;BME280;29470;53.550;9.926;2023-02-21T19:46:44;101288.19;;;12.38;90.76
43824;BME280;29470;53.550;9.926;2023-02-21T19:51:48;101296.72;;;12.49;88.58
43824;BME280;29470;53.550;9.926;2023-02-21T19:56:53;101303.63;;;12.00;92.48
43824;BME280;29470;53.550;9.926;2023-02-21T20:01:56;101296.91;;;12.64;89.22
43824;BME280;29470;53.550;9.926;2023-02-21T20:07:01;101298.09;;;12.44;91.38
43824;BME280;29470;53.550;9.926;2023-02-21T20:12:06;101289.84;;;12.75;88.44
43824;BME280;29470;53.550;9.926;2023-02-21T20:17:09;101301.91;;;11.88;92.01
43824;BME280;29470;53.550;9.926;2023-02-21T20:22:12;101300.19;;;12.25;89.87
43824;BME280;29470;53.550;9.926;2023-02-21T20:27:34;101304.38;;;11.99;91.71
43824;BME280;29470;53.550;9.926;2023-02-21T20:32:37;101309.31;;;11.84;94.06
43824;BME280;29470;53.550;9.926;2023-02-21T20:37:40;101304.38;;;12.11;94.87
43824;BME280;29470;53.550;9.926;2023-02-21T20:42:44;101302.97;;;12.65;91.81
43824;BME280;29470;53.550;9.926;2023-02-21T20:47:48;101304.50;;;12.12;93.37
43824;BME280;29470;53.550;9.926;2023-02-21T20:52:51;101306.06;;;11.86;95.13
43824;BME280;29470;53.550;9.926;2023-02-21T20:57:56;101305.16;;;11.74;97.02
43824;BME280;29470;53.550;9.926;2023-02-21T21:02:59;101300.53;;;11.93;95.99
43824;BME280;29470;53.550;9.926;2023-02-21T21:08:02;101305.06;;;11.84;94.87
43824;BME280;29470;53.550;9.926;2023-02-21T21:13:07;101304.38;;;11.99;98.33
43824;BME280;29470;53.550;9.926;2023-02-21T21:18:09;101306.94;;;12.34;93.43
43824;BME280;29470;53.550;9.926;2023-02-21T21:23:12;101303.59;;;12.12;95.47
43824;BME280;29470;53.550;9.926;2023-02-21T21:28:17;101309.78;;;12.26;92.86
43824;BME280;29470;53.550;9.926;2023-02-21T21:33:19;101302.22;;;12.91;91.26
43824;BME280;29470;53.550;9.926;2023-02-21T21:38:23;101309.00;;;12.27;91.54
43824;BME280;29470;53.550;9.926;2023-02-21T21:43:28;101308.41;;;11.95;93.76
43824;BME280;29470;53.550;9.926;2023-02-21T21:48:32;101304.69;;;12.64;90.67
43824;BME280;29470;53.550;9.926;2023-02-21T21:53:35;101300.03;;;12.98;88.83
43824;BME280;29470;53.550;9.926;2023-02-21T21:58:42;101288.84;;;12.48;88.85
43824;BME280;29470;53.550;9.926;2023-02-21T22:03:44;101306.28;;;11.77;93.67
43824;BME280;29470;53.550;9.926;2023-02-21T22:08:48;101301.91;;;12.12;90.49
43824;BME280;29470;53.550;9.926;2023-02-21T22:13:52;101292.75;;;12.55;90.91
43824;BME280;29470;53.550;9.926;2023-02-21T22:18:55;101284.59;;;12.36;89.67
43824;BME280;29470;53.550;9.926;2023-02-21T22:23:58;101283.88;;;12.76;88.75
43824;BME280;29470;53.550;9.926;2023-02-21T22:29:02;101282.25;;;12.90;86.70
43824;BME280;29470;53.550;9.926;2023-02-21T22:34:06;101281.28;;;12.76;86.94
43824;BME280;29470;53.550;9.926;2023-02-21T22:39:09;101281.84;;;12.72;87.57
43824;BME280;29470;53.550;9.926;2023-02-21T22:44:14;101275.13;;;12.88;88.08
43824;BME280;29470;53.550;9.926;2023-02-21T22:49:17;101277.34;;;12.95;85.85
43824;BME280;29470;53.550;9.926;2023-02-21T22:54:22;101276.91;;;13.27;86.48
43824;BME280;29470;53.550;9.926;2023-02-21T22:59:27;101277.13;;;12.92;87.41
43824;BME280;29470;53.550;9.926;2023-02-21T23:04:30;101268.38;;;13.03;86.16
43824;BME280;29470;53.550;9.926;2023-02-21T23:09:38;101267.69;;;13.45;84.47
43824;BME280;29470;53.550;9.926;2023-02-21T23:14:42;101260.28;;;12.73;87.23
43824;BME280;29470;53.550;9.926;2023-02-21T23:19:48;101263.31;;;12.79;85.34
43824;BME280;29470;53.550;9.926;2023-02-21T23:24:51;101260.88;;;12.94;88.82
43824;BME280;29470;53.550;9.926;2023-02-21T23:29:56;101251.53;;;13.10;86.70
43824;BME280;29470;53.550;9.926;2023-02-21T23:35:01;101252.34;;;13.22;83.98
43824;BME280;29470;53.550;9.926;2023-02-21T23:40:04;101246.25;;;13.22;84.78
43824;BME280;29470;53.550;9.926;2023-02-21T23:45:18;101244.94;;;13.29;85.96
43824;BME280;29470;53.550;9.926;2023-02-21T23:50:23;101246.34;;;13.37;85.54
43824;BME280;29470;53.550;9.926;2023-02-21T23:55:31;101245.25;;;13.20;85.97
